Time;durP1;ratioP1;P1;durP2;ratioP2;P2;SDS_P1;SDS_P2;PMS_P1;PMS_P2;Temp;Humidity;BMP_temperature;BMP_pressure;BME280_temperature;BME280_humidity;BME280_pressure;Samples;Min_cycle;Max_cycle;Signal;HPM_P1;HPM_P2
2022/09/17 00:00:51;;;;;;;2.13;1.00;;;20.50;99.90;;;;;;4151987;28;20212;-76
2022/09/17 00:02:54;;;;;;;2.92;1.00;;;20.50;99.90;;;;;;4159565;28;20221;-76
2022/09/17 00:04:56;;;;;;;2.33;1.00;;;20.50;99.90;;;;;;4159529;28;20228;-76
2022/09/17 00:06:59;;;;;;;2.80;0.90;;;20.50;99.90;;;;;;4146397;28;20237;-75
2022/09/17 00:09:01;;;;;;;4.68;1.20;;;20.50;99.90;;;;;;4145444;28;20662;-76
2022/09/17 00:11:07;;;;;;;3.30;1.25;;;20.50;99.90;;;;;;4145664;28;20264;-76
2022/09/17 00:13:11;;;;;;;1.95;0.98;;;20.50;99.90;;;;;;4155943;28;20244;-76
2022/09/17 00:15:15;;;;;;;1.90;0.80;;;20.50;99.90;;;;;;4150595;28;20262;-76
2022/09/17 00:17:17;;;;;;;2.28;0.95;;;20.50;99.90;;;;;;4148342;28;20225;-76
2022/09/17 00:19:24;;;;;;;2.55;1.30;;;20.50;99.90;;;;;;4149553;28;20217;-76
2022/09/17 00:21:27;;;;;;;2.03;1.13;;;20.50;99.90;;;;;;4161066;28;20271;-75
2022/09/17 00:23:29;;;;;;;2.03;1.08;;;20.50;99.90;;;;;;4157808;28;20679;-76
2022/09/17 00:25:32;;;;;;;2.80;0.93;;;20.50;99.90;;;;;;4137486;28;20677;-76
2022/09/17 00:27:34;;;;;;;1.95;1.00;;;20.50;99.90;;;;;;4147685;28;20329;-76
2022/09/17 00:29:37;;;;;;;1.92;1.10;;;20.50;99.90;;;;;;4139556;28;20217;-76
2022/09/17 00:31:40;;;;;;;1.83;0.90;;;20.50;99.90;;;;;;4150644;28;20216;-76
2022/09/17 00:33:43;;;;;;;2.05;1.15;;;20.50;99.90;;;;;;4147804;28;20716;-76
2022/09/17 00:35:45;;;;;;;3.05;1.30;;;20.50;99.90;;;;;;4152585;28;20240;-76
2022/09/17 00:37:47;;;;;;;2.42;1.30;;;20.50;99.90;;;;;;4158876;28;20216;-76
2022/09/17 00:39:50;;;;;;;1.30;0.95;;;20.50;99.90;;;;;;4150735;28;20263;-76
2022/09/17 00:41:52;;;;;;;2.95;1.33;;;20.50;99.90;;;;;;4150462;28;20217;-76
2022/09/17 00:43:56;;;;;;;2.15;0.93;;;20.50;99.90;;;;;;4150561;28;20213;-76
2022/09/17 00:45:59;;;;;;;1.65;0.93;;;20.50;99.90;;;;;;4146036;28;20252;-76
2022/09/17 00:48:06;;;;;;;2.50;0.93;;;20.50;99.90;;;;;;4148394;28;20577;-76
2022/09/17 00:50:12;;;;;;;3.08;1.00;;;20.50;99.90;;;;;;4148295;28;20271;-75
2022/09/17 00:52:17;;;;;;;3.70;1.10;;;20.50;99.90;;;;;;4150693;28;20990;-76
2022/09/17 00:54:19;;;;;;;2.33;1.27;;;20.50;99.90;;;;;;4154813;28;20274;-76
2022/09/17 00:56:25;;;;;;;3.53;1.27;;;20.50;99.90;;;;;;4152798;28;20233;-76
2022/09/17 00:58:28;;;;;;;2.47;1.00;;;20.50;99.90;;;;;;4147412;28;20275;-75
2022/09/17 01:00:30;;;;;;;2.63;0.90;;;20.50;99.90;;;;;;4148286;28;20217;-76
2022/09/17 01:02:33;;;;;;;1.85;0.90;;;20.50;99.90;;;;;;4159017;28;20216;-75
2022/09/17 01:04:36;;;;;;;1.85;0.85;;;20.40;99.90;;;;;;4151912;28;20213;-76
2022/09/17 01:06:46;;;;;;;3.25;1.23;;;20.40;99.90;;;;;;4162526;28;20353;-75
2022/09/17 01:09:12;;;;;;;1.75;0.90;;;20.40;99.90;;;;;;4171399;28;20621;-75
2022/09/17 01:11:34;;;;;;;2.78;1.10;;;20.40;99.90;;;;;;4162295;28;20244;-75
2022/09/17 01:13:47;;;;;;;2.80;1.13;;;20.40;99.90;;;;;;4154692;28;20616;-76
2022/09/17 01:15:59;;;;;;;1.90;1.00;;;20.40;99.90;;;;;;4169972;28;20587;-75
2022/09/17 01:18:14;;;;;;;2.95;1.00;;;20.40;99.90;;;;;;4175583;28;20216;-76
2022/09/17 01:20:47;;;;;;;2.58;1.00;;;20.40;99.90;;;;;;4157976;28;20221;-75
2022/09/17 01:23:07;;;;;;;3.83;1.00;;;20.40;99.90;;;;;;4167535;28;20209;-76
2022/09/17 01:25:21;;;;;;;1.83;1.17;;;20.40;99.90;;;;;;4156127;28;20220;-75
2022/09/17 01:27:58;;;;;;;3.15;0.93;;;20.40;99.90;;;;;;4162594;28;20221;-76
2022/09/17 01:30:16;;;;;;;2.38;1.02;;;20.40;99.90;;;;;;4154781;28;20270;-76
2022/09/17 01:32:25;;;;;;;1.60;0.90;;;20.50;99.90;;;;;;4164041;28;20220;-76
2022/09/17 01:34:40;;;;;;;1.95;0.80;;;20.40;99.90;;;;;;4163528;28;20334;-76
2022/09/17 01:36:58;;;;;;;2.33;0.85;;;20.40;99.90;;;;;;4173746;28;20235;-76
2022/09/17 01:39:06;;;;;;;2.00;1.10;;;20.40;99.90;;;;;;4166582;28;20262;-76
2022/09/17 01:41:18;;;;;;;2.40;0.93;;;20.40;99.90;;;;;;4163740;28;20627;-76
2022/09/17 01:43:24;;;;;;;1.95;0.82;;;20.40;99.90;;;;;;4163890;28;20761;-76
2022/09/17 01:45:34;;;;;;;2.22;0.98;;;20.40;99.90;;;;;;4176184;28;20220;-76
2022/09/17 01:47:42;;;;;;;1.80;0.95;;;20.40;99.90;;;;;;4157565;28;20255;-76
2022/09/17 01:49:45;;;;;;;2.35;0.90;;;20.40;99.90;;;;;;4169174;28;20278;-76
2022/09/17 01:51:50;;;;;;;2.88;1.13;;;20.40;99.90;;;;;;4156354;28;20259;-76
2022/09/17 01:53:58;;;;;;;1.58;0.90;;;20.40;99.90;;;;;;4157579;28;20212;-76
2022/09/17 01:56:03;;;;;;;1.25;0.90;;;20.40;99.90;;;;;;4163172;28;20239;-76
2022/09/17 01:58:13;;;;;;;2.78;1.05;;;20.40;99.90;;;;;;4165704;28;20212;-76
2022/09/17 02:00:17;;;;;;;2.25;1.02;;;20.40;99.90;;;;;;4159164;28;20262;-75
2022/09/17 02:02:27;;;;;;;1.65;0.70;;;20.40;99.90;;;;;;4170302;28;20266;-76
2022/09/17 02:04:36;;;;;;;2.65;1.00;;;20.40;99.90;;;;;;4163067;28;20220;-76
2022/09/17 02:06:41;;;;;;;3.17;1.13;;;20.40;99.90;;;;;;4149655;28;20315;-76
2022/09/17 02:08:47;;;;;;;2.03;1.08;;;20.40;99.90;;;;;;4146513;28;20658;-76
2022/09/17 02:10:56;;;;;;;2.97;1.00;;;20.40;99.90;;;;;;4136874;28;20214;-76
2022/09/17 02:13:02;;;;;;;1.88;0.90;;;20.40;99.90;;;;;;4142109;28;20216;-76
2022/09/17 02:15:10;;;;;;;1.73;0.90;;;20.40;99.90;;;;;;4139027;28;20538;-75
2022/09/17 02:17:19;;;;;;;2.13;0.93;;;20.40;99.90;;;;;;4137720;28;20240;-76
2022/09/17 02:19:25;;;;;;;4.03;1.13;;;20.40;99.90;;;;;;4146233;28;20274;-76
2022/09/17 02:21:34;;;;;;;1.80;0.93;;;20.40;99.90;;;;;;4146728;28;20625;-75
2022/09/17 02:23:44;;;;;;;3.05;1.00;;;20.30;99.90;;;;;;4144333;28;20256;-76
2022/09/17 02:25:52;;;;;;;2.08;1.00;;;20.40;99.90;;;;;;4141320;28;20217;-76
2022/09/17 02:28:01;;;;;;;2.75;1.08;;;20.40;99.90;;;;;;4135852;28;20208;-76
2022/09/17 02:30:04;;;;;;;2.40;1.05;;;20.30;99.90;;;;;;4142655;28;20208;-76
2022/09/17 02:32:07;;;;;;;2.05;1.00;;;20.30;99.90;;;;;;4144583;28;20209;-76
2022/09/17 02:34:11;;;;;;;1.45;0.90;;;20.40;99.90;;;;;;4138519;28;20272;-76
2022/09/17 02:36:13;;;;;;;3.45;0.95;;;20.30;99.90;;;;;;4141552;28;20621;-75
2022/09/17 02:38:24;;;;;;;1.38;0.90;;;20.30;99.90;;;;;;4146067;28;20221;-76
2022/09/17 02:40:30;;;;;;;2.72;0.85;;;20.40;99.90;;;;;;4146544;28;20622;-76
2022/09/17 02:42:43;;;;;;;2.33;1.02;;;20.30;99.90;;;;;;4146371;28;20273;-76
2022/09/17 02:44:57;;;;;;;1.80;1.10;;;20.30;99.90;;;;;;4146247;28;20217;-76
2022/09/17 02:47:24;;;;;;;1.60;0.95;;;20.30;99.90;;;;;;4146236;28;20646;-76
2022/09/17 02:49:42;;;;;;;3.63;1.23;;;20.30;99.90;;;;;;4141202;28;20276;-76
2022/09/17 02:51:52;;;;;;;2.53;0.90;;;20.30;99.90;;;;;;4143226;28;20669;-76
2022/09/17 02:54:05;;;;;;;2.65;0.98;;;20.30;99.90;;;;;;4135470;28;20726;-76
2022/09/17 02:56:18;;;;;;;2.10;1.08;;;20.30;99.90;;;;;;4146487;28;20221;-76
2022/09/17 02:58:28;;;;;;;2.50;1.00;;;20.30;99.90;;;;;;4145951;28;20630;-75
2022/09/17 03:00:31;;;;;;;3.50;1.02;;;20.40;99.90;;;;;;4145879;28;20213;-76
2022/09/17 03:02:39;;;;;;;1.65;1.02;;;20.30;99.90;;;;;;4145586;28;20221;-76
2022/09/17 03:04:45;;;;;;;3.10;1.00;;;20.40;99.90;;;;;;4142242;28;20212;-76
2022/09/17 03:06:48;;;;;;;2.40;0.88;;;20.30;99.90;;;;;;4148655;28;20233;-76
2022/09/17 03:08:51;;;;;;;1.88;0.93;;;20.30;99.90;;;;;;4146748;28;20221;-76
2022/09/17 03:10:55;;;;;;;3.05;1.20;;;20.30;99.90;;;;;;4152174;28;20640;-76
2022/09/17 03:12:57;;;;;;;2.85;1.20;;;20.30;99.90;;;;;;4159086;28;20278;-76
2022/09/17 03:15:00;;;;;;;3.08;0.88;;;20.40;99.90;;;;;;4162252;28;20267;-76
2022/09/17 03:17:02;;;;;;;2.53;0.80;;;20.30;99.90;;;;;;4163561;28;20285;-76
2022/09/17 03:19:04;;;;;;;2.67;0.85;;;20.30;99.90;;;;;;4161633;28;20295;-76
2022/09/17 03:21:07;;;;;;;1.88;1.13;;;20.30;99.90;;;;;;4161526;28;20213;-76
2022/09/17 03:23:09;;;;;;;1.77;0.90;;;20.30;99.90;;;;;;4161917;28;20267;-76
2022/09/17 03:25:11;;;;;;;1.77;0.98;;;20.30;99.90;;;;;;4161857;28;21072;-76
2022/09/17 03:27:15;;;;;;;2.95;1.20;;;20.30;99.90;;;;;;4162123;28;20248;-76
2022/09/17 03:29:18;;;;;;;2.95;1.00;;;20.20;99.90;;;;;;4157821;28;20225;-75
2022/09/17 03:31:20;;;;;;;2.33;1.20;;;20.30;99.90;;;;;;4160189;28;20216;-76
2022/09/17 03:33:22;;;;;;;2.30;1.00;;;20.30;99.90;;;;;;4161931;28;20274;-76
2022/09/17 03:35:25;;;;;;;2.65;1.10;;;20.30;99.90;;;;;;4161762;28;20665;-76
2022/09/17 03:37:27;;;;;;;2.78;0.98;;;20.30;99.90;;;;;;4161869;28;20731;-76
2022/09/17 03:39:30;;;;;;;2.03;0.80;;;20.30;99.90;;;;;;4161903;28;20266;-76
2022/09/17 03:41:32;;;;;;;2.28;1.00;;;20.20;99.90;;;;;;4155304;28;20220;-76
2022/09/17 03:43:36;;;;;;;4.10;1.20;;;20.20;99.90;;;;;;4161635;28;20278;-75
2022/09/17 03:45:38;;;;;;;3.53;1.23;;;20.20;99.90;;;;;;4149324;28;20217;-76
2022/09/17 03:47:41;;;;;;;1.85;0.80;;;20.20;99.90;;;;;;4161439;28;20282;-76
2022/09/17 03:49:43;;;;;;;2.25;1.00;;;20.30;99.90;;;;;;4161376;28;20414;-76
2022/09/17 03:51:45;;;;;;;1.40;0.90;;;20.20;99.90;;;;;;4161912;28;20637;-76
2022/09/17 03:53:48;;;;;;;2.75;1.00;;;20.20;99.90;;;;;;4164695;28;20641;-76
2022/09/17 03:55:50;;;;;;;1.60;0.88;;;20.20;99.90;;;;;;4164949;28;20220;-75
2022/09/17 03:57:52;;;;;;;2.03;1.13;;;20.20;99.90;;;;;;4164527;28;20266;-76
2022/09/17 03:59:56;;;;;;;2.35;1.05;;;20.20;99.90;;;;;;4164850;28;20274;-76
2022/09/17 04:01:58;;;;;;;2.47;1.00;;;20.20;99.90;;;;;;4165117;28;20965;-75
2022/09/17 04:04:01;;;;;;;3.00;1.13;;;20.20;99.90;;;;;;4164811;28;20220;-75
2022/09/17 04:06:03;;;;;;;3.33;1.15;;;20.20;99.90;;;;;;4164541;28;20225;-76
2022/09/17 04:08:06;;;;;;;2.22;1.00;;;20.20;99.90;;;;;;4164877;28;20232;-76
2022/09/17 04:10:09;;;;;;;2.38;1.27;;;20.20;99.90;;;;;;4164457;28;20217;-76
2022/09/17 04:12:12;;;;;;;1.98;0.80;;;20.20;99.90;;;;;;4165292;28;20654;-76
2022/09/17 04:14:14;;;;;;;2.80;1.00;;;20.20;99.90;;;;;;4164959;28;20247;-76
2022/09/17 04:16:18;;;;;;;1.95;1.17;;;20.20;99.90;;;;;;4158771;28;20270;-76
2022/09/17 04:18:20;;;;;;;2.10;1.20;;;20.20;99.90;;;;;;4164709;28;20259;-76
2022/09/17 04:20:23;;;;;;;3.00;1.13;;;20.20;99.90;;;;;;4164480;28;20213;-76
2022/09/17 04:22:25;;;;;;;1.95;1.08;;;20.20;99.90;;;;;;4162112;28;20332;-76
2022/09/17 04:24:27;;;;;;;1.95;1.00;;;20.20;99.90;;;;;;4158606;28;20633;-76
2022/09/17 04:26:29;;;;;;;2.58;1.00;;;20.20;99.90;;;;;;4164364;28;20220;-76
2022/09/17 04:28:32;;;;;;;3.00;1.17;;;20.20;99.90;;;;;;4163203;28;21002;-76
2022/09/17 04:30:34;;;;;;;2.00;0.77;;;20.20;99.90;;;;;;4164464;28;20282;-75
2022/09/17 04:32:38;;;;;;;2.92;1.00;;;20.20;99.90;;;;;;4159421;28;20303;-75
2022/09/17 04:34:40;;;;;;;2.42;1.05;;;20.20;99.90;;;;;;4160438;28;20270;-75
2022/09/17 04:36:42;;;;;;;2.03;1.02;;;20.20;99.90;;;;;;4163991;28;20216;-76
2022/09/17 04:38:47;;;;;;;2.75;1.10;;;20.20;99.90;;;;;;4164548;28;20270;-75
2022/09/17 04:40:50;;;;;;;1.67;0.90;;;20.20;99.90;;;;;;4161118;28;20217;-76
2022/09/17 04:42:52;;;;;;;2.55;1.13;;;20.20;99.90;;;;;;4165220;28;20290;-75
2022/09/17 04:44:55;;;;;;;2.45;1.08;;;20.20;99.90;;;;;;4165020;28;20229;-75
2022/09/17 04:46:57;;;;;;;2.05;0.98;;;20.20;99.90;;;;;;4164755;28;20220;-74
2022/09/17 04:49:01;;;;;;;2.25;0.80;;;20.20;99.90;;;;;;4160486;28;20302;-75
2022/09/17 04:51:04;;;;;;;2.05;1.08;;;20.20;99.90;;;;;;4165735;28;20665;-75
2022/09/17 04:53:06;;;;;;;2.60;1.00;;;20.20;99.90;;;;;;4165057;28;20275;-75
2022/09/17 04:55:09;;;;;;;2.53;0.90;;;20.20;99.90;;;;;;4163660;28;20220;-76
2022/09/17 04:57:11;;;;;;;1.85;1.10;;;20.20;99.90;;;;;;4164305;28;20212;-75
2022/09/17 04:59:13;;;;;;;2.60;0.95;;;20.10;99.90;;;;;;4158396;28;20220;-75
2022/09/17 05:01:17;;;;;;;2.35;0.82;;;20.20;99.90;;;;;;4163925;28;20657;-76
2022/09/17 05:03:19;;;;;;;2.63;1.10;;;20.10;99.90;;;;;;4163429;28;20266;-75
2022/09/17 05:05:24;;;;;;;3.42;1.20;;;20.10;99.90;;;;;;4162240;28;20290;-75
2022/09/17 05:07:26;;;;;;;3.30;1.17;;;20.20;99.90;;;;;;4164058;28;20266;-75
2022/09/17 05:09:28;;;;;;;2.33;1.17;;;20.10;99.90;;;;;;4163690;28;20248;-75
2022/09/17 05:11:31;;;;;;;2.90;1.08;;;20.20;99.90;;;;;;4163304;28;20228;-75
2022/09/17 05:13:33;;;;;;;2.70;1.10;;;20.10;99.90;;;;;;4159882;28;20241;-75
2022/09/17 05:15:35;;;;;;;3.60;1.00;;;20.20;99.90;;;;;;4158177;28;20220;-76
2022/09/17 05:17:37;;;;;;;2.15;1.25;;;20.20;99.90;;;;;;4163755;28;20212;-75
2022/09/17 05:19:40;;;;;;;3.92;1.13;;;20.10;99.90;;;;;;4151168;28;20205;-75
2022/09/17 05:21:43;;;;;;;3.60;1.45;;;20.10;99.90;;;;;;4164069;28;20255;-76
2022/09/17 05:23:46;;;;;;;3.42;1.23;;;20.20;99.90;;;;;;4163521;28;20216;-75
2022/09/17 05:25:49;;;;;;;3.13;1.35;;;20.20;99.90;;;;;;4163492;28;20553;-76
2022/09/17 05:27:52;;;;;;;2.22;0.95;;;20.10;99.90;;;;;;4163704;28;20220;-76
2022/09/17 05:29:54;;;;;;;3.53;1.17;;;20.10;99.90;;;;;;4145642;28;20240;-76
2022/09/17 05:31:57;;;;;;;4.30;1.35;;;20.10;99.90;;;;;;4163354;28;20213;-76
2022/09/17 05:33:59;;;;;;;2.50;1.02;;;20.10;99.90;;;;;;4163543;28;20251;-75
2022/09/17 05:36:02;;;;;;;3.45;1.20;;;20.10;99.90;;;;;;4163469;28;20213;-75
2022/09/17 05:38:07;;;;;;;2.65;1.00;;;20.10;99.90;;;;;;4163370;28;20208;-76
2022/09/17 05:40:10;;;;;;;1.75;0.80;;;20.10;99.90;;;;;;4163154;28;20213;-76
2022/09/17 05:42:12;;;;;;;3.42;1.38;;;20.10;99.90;;;;;;4162935;28;20242;-76
2022/09/17 05:44:14;;;;;;;2.72;1.17;;;20.10;99.90;;;;;;4162807;28;20274;-75
2022/09/17 05:46:16;;;;;;;2.97;1.00;;;20.10;99.90;;;;;;4162940;28;20216;-76
2022/09/17 05:48:19;;;;;;;2.25;1.10;;;20.10;99.90;;;;;;4163215;28;20381;-75
2022/09/17 05:50:21;;;;;;;3.67;1.25;;;20.10;99.90;;;;;;4162654;28;20908;-76
2022/09/17 05:52:28;;;;;;;4.28;1.30;;;20.10;99.90;;;;;;4163527;28;20246;-75
2022/09/17 05:54:31;;;;;;;2.95;1.13;;;20.10;99.90;;;;;;4162828;28;20625;-76
2022/09/17 05:56:34;;;;;;;2.95;1.13;;;20.10;99.90;;;;;;4162861;28;20270;-76
2022/09/17 05:58:36;;;;;;;3.28;1.40;;;20.10;99.90;;;;;;4162353;28;20220;-75
2022/09/17 06:00:40;;;;;;;2.85;1.30;;;20.10;99.90;;;;;;4154436;28;20213;-75
2022/09/17 06:02:42;;;;;;;1.42;0.82;;;20.10;99.90;;;;;;4159037;28;20216;-76
2022/09/17 06:04:45;;;;;;;2.55;1.17;;;20.10;99.90;;;;;;4162982;28;20216;-76
2022/09/17 06:06:47;;;;;;;2.63;1.10;;;20.10;99.90;;;;;;4162269;28;20310;-75
2022/09/17 06:08:50;;;;;;;3.40;1.42;;;20.10;99.90;;;;;;4162942;28;20233;-75
2022/09/17 06:10:54;;;;;;;3.60;1.30;;;20.10;99.90;;;;;;4162514;28;20263;-76
2022/09/17 06:12:56;;;;;;;3.25;0.90;;;20.10;99.90;;;;;;4162386;28;20278;-75
2022/09/17 06:14:59;;;;;;;2.55;0.80;;;20.10;99.90;;;;;;4162906;28;20653;-76
2022/09/17 06:17:01;;;;;;;1.80;0.98;;;20.10;99.90;;;;;;4163376;28;20628;-75
2022/09/17 06:19:04;;;;;;;3.60;1.48;;;20.10;99.90;;;;;;4162616;28;20212;-75
2022/09/17 06:21:06;;;;;;;3.58;1.10;;;20.10;99.90;;;;;;4162513;28;20633;-76
2022/09/17 06:23:08;;;;;;;3.42;1.17;;;20.10;99.90;;;;;;4162546;28;20262;-75
2022/09/17 06:25:10;;;;;;;3.72;1.13;;;20.10;99.90;;;;;;4162292;28;20263;-75
2022/09/17 06:27:14;;;;;;;2.65;1.17;;;20.10;99.90;;;;;;4160129;28;20360;-76
2022/09/17 06:29:16;;;;;;;2.70;1.10;;;20.10;99.90;;;;;;4155509;28;20241;-76
2022/09/17 06:31:19;;;;;;;2.28;1.05;;;20.10;99.90;;;;;;4162706;28;20274;-76
2022/09/17 06:33:21;;;;;;;2.55;1.08;;;20.10;99.90;;;;;;4162756;28;20267;-76
2022/09/17 06:35:23;;;;;;;3.05;0.95;;;20.10;99.90;;;;;;4162825;28;20220;-76
2022/09/17 06:37:28;;;;;;;3.20;1.27;;;20.10;99.90;;;;;;4162278;28;20298;-76
2022/09/17 06:39:30;;;;;;;2.85;1.17;;;20.10;99.90;;;;;;4162632;28;20270;-76
2022/09/17 06:41:33;;;;;;;3.50;1.15;;;20.10;99.90;;;;;;4162136;28;20224;-76
2022/09/17 06:43:36;;;;;;;3.13;1.15;;;20.10;99.90;;;;;;4162898;28;20204;-75
2022/09/17 06:45:39;;;;;;;4.03;1.15;;;20.10;99.90;;;;;;4162169;28;20645;-76
2022/09/17 06:47:41;;;;;;;2.35;1.00;;;20.10;99.90;;;;;;4157941;28;20218;-76
2022/09/17 06:49:43;;;;;;;2.55;1.10;;;20.10;99.90;;;;;;4155699;28;20236;-76
2022/09/17 06:51:46;;;;;;;4.43;1.17;;;20.10;99.90;;;;;;4161606;28;20213;-76
2022/09/17 06:53:48;;;;;;;2.58;1.08;;;20.10;99.90;;;;;;4162276;28;20224;-76
2022/09/17 06:55:51;;;;;;;3.85;1.15;;;20.10;99.90;;;;;;4162341;28;20270;-76
2022/09/17 06:57:53;;;;;;;3.10;1.08;;;20.10;99.90;;;;;;4161888;28;20621;-76
2022/09/17 06:59:56;;;;;;;1.85;0.98;;;20.10;99.90;;;;;;4161921;28;20227;-76
2022/09/17 07:01:59;;;;;;;4.43;1.38;;;20.10;99.90;;;;;;4162167;28;20733;-76
2022/09/17 07:04:01;;;;;;;3.63;1.13;;;20.20;99.90;;;;;;4162108;28;20283;-75
2022/09/17 07:06:04;;;;;;;3.70;1.50;;;20.10;99.90;;;;;;4159274;28;20289;-75
2022/09/17 07:08:06;;;;;;;3.08;1.10;;;20.10;99.90;;;;;;4155406;28;20259;-75
2022/09/17 07:10:09;;;;;;;2.63;1.02;;;20.10;99.90;;;;;;4162587;28;20298;-75
2022/09/17 07:12:11;;;;;;;2.45;1.25;;;20.20;99.90;;;;;;4162406;28;20212;-75
2022/09/17 07:14:13;;;;;;;3.42;1.17;;;20.10;99.90;;;;;;4158852;28;20274;-76
2022/09/17 07:16:17;;;;;;;3.22;1.20;;;20.20;99.90;;;;;;4167302;28;20623;-76
2022/09/17 07:18:19;;;;;;;2.63;1.02;;;20.20;99.90;;;;;;4162076;28;20216;-76
2022/09/17 07:20:21;;;;;;;1.90;0.80;;;20.10;99.90;;;;;;4162610;28;20699;-76
2022/09/17 07:22:25;;;;;;;4.28;1.20;;;20.10;99.90;;;;;;4162092;28;20266;-76
2022/09/17 07:24:27;;;;;;;4.18;1.30;;;20.10;99.90;;;;;;4162340;28;20216;-76
2022/09/17 07:26:29;;;;;;;4.22;1.33;;;20.10;99.90;;;;;;4161808;28;20220;-76
2022/09/17 07:28:32;;;;;;;2.83;1.10;;;20.10;99.90;;;;;;4160867;28;20219;-77
2022/09/17 07:30:34;;;;;;;3.65;1.42;;;20.10;99.90;;;;;;4161929;28;20286;-76
2022/09/17 07:32:38;;;;;;;3.72;1.15;;;20.10;99.90;;;;;;4162113;28;20266;-76
2022/09/17 07:34:40;;;;;;;2.13;0.90;;;20.10;99.90;;;;;;4162177;28;20323;-76
2022/09/17 07:36:43;;;;;;;2.28;1.10;;;20.10;99.90;;;;;;4161935;28;20216;-76
2022/09/17 07:38:45;;;;;;;3.00;1.02;;;20.10;99.90;;;;;;4161849;28;20220;-76
2022/09/17 07:40:54;;;;;;;2.85;1.08;;;20.10;99.90;;;;;;4158597;28;20216;-75
2022/09/17 07:42:58;;;;;;;2.92;1.10;;;20.10;99.90;;;;;;4161872;28;20274;-76
2022/09/17 07:45:00;;;;;;;3.33;1.30;;;20.10;99.90;;;;;;4161660;28;20732;-75
2022/09/17 07:47:03;;;;;;;2.85;1.13;;;20.10;99.90;;;;;;4162741;28;20224;-75
2022/09/17 07:49:06;;;;;;;1.35;0.90;;;20.10;99.90;;;;;;4161135;28;20236;-76
2022/09/17 07:51:14;;;;;;;3.25;1.05;;;20.20;99.90;;;;;;4161772;28;20767;-76
2022/09/17 07:53:16;;;;;;;3.38;1.00;;;20.10;99.90;;;;;;4161962;28;20216;-76
2022/09/17 07:55:18;;;;;;;2.42;1.40;;;20.20;99.90;;;;;;4161832;28;20328;-76
2022/09/17 07:57:21;;;;;;;3.15;1.15;;;20.20;99.90;;;;;;4161816;28;20259;-76
2022/09/17 07:59:23;;;;;;;2.28;1.13;;;20.20;99.90;;;;;;4161799;28;20217;-76
2022/09/17 08:01:26;;;;;;;2.58;1.10;;;20.10;99.90;;;;;;4161570;28;20217;-75
2022/09/17 08:03:28;;;;;;;2.05;1.23;;;20.20;99.90;;;;;;4161572;28;20232;-76
2022/09/17 08:05:32;;;;;;;4.55;1.00;;;20.20;99.90;;;;;;4158162;28;20248;-76
2022/09/17 08:07:34;;;;;;;3.47;1.55;;;20.10;99.90;;;;;;4145486;28;20267;-76
2022/09/17 08:09:37;;;;;;;4.22;1.30;;;20.20;99.90;;;;;;4134628;28;20213;-75
2022/09/17 08:11:39;;;;;;;3.47;1.45;;;20.20;99.90;;;;;;4132929;28;20357;-75
2022/09/17 08:13:41;;;;;;;2.20;1.20;;;20.20;99.90;;;;;;4145537;28;20213;-75
2022/09/17 08:15:44;;;;;;;4.32;1.45;;;20.20;99.90;;;;;;4145689;28;20704;-75
2022/09/17 08:17:46;;;;;;;3.08;1.25;;;20.20;99.90;;;;;;4145728;28;20221;-75
2022/09/17 08:19:49;;;;;;;3.13;1.30;;;20.20;99.90;;;;;;4145346;28;20272;-75
2022/09/17 08:21:52;;;;;;;2.63;1.00;;;20.20;99.90;;;;;;4146986;28;20269;-74
2022/09/17 08:23:55;;;;;;;3.85;0.85;;;20.20;99.90;;;;;;4142834;28;20214;-75
2022/09/17 08:25:59;;;;;;;3.88;1.30;;;20.10;99.90;;;;;;4142120;28;20612;-75
2022/09/17 08:28:02;;;;;;;4.13;1.40;;;20.20;99.90;;;;;;4146206;28;20264;-75
2022/09/17 08:30:05;;;;;;;2.28;1.10;;;20.10;99.90;;;;;;4145266;28;20284;-75
2022/09/17 08:32:07;;;;;;;4.57;1.15;;;20.10;99.90;;;;;;4140670;28;20214;-75
2022/09/17 08:34:10;;;;;;;2.75;1.10;;;20.20;99.90;;;;;;4144592;28;20217;-75
2022/09/17 08:36:14;;;;;;;5.18;1.30;;;20.20;99.90;;;;;;4145316;28;20225;-76
2022/09/17 08:38:18;;;;;;;4.65;1.35;;;20.20;99.90;;;;;;4146019;28;20263;-75
2022/09/17 08:40:22;;;;;;;3.22;1.27;;;20.20;99.90;;;;;;4147655;28;20216;-76
2022/09/17 08:42:31;;;;;;;3.50;1.23;;;20.20;99.90;;;;;;4147910;28;20267;-76
2022/09/17 08:44:41;;;;;;;2.47;1.00;;;20.20;99.90;;;;;;4142076;28;20614;-77
2022/09/17 08:46:46;;;;;;;3.00;1.20;;;20.20;99.90;;;;;;4147991;28;20363;-76
2022/09/17 08:48:53;;;;;;;3.70;1.20;;;20.20;99.90;;;;;;4147522;28;20664;-75
2022/09/17 08:50:55;;;;;;;3.53;1.30;;;20.20;99.90;;;;;;4141470;28;20241;-75
2022/09/17 08:53:12;;;;;;;1.90;0.90;;;20.20;99.90;;;;;;4136599;28;20225;-76
2022/09/17 08:55:28;;;;;;;2.65;1.13;;;20.20;99.90;;;;;;4146667;28;21080;-76
2022/09/17 08:57:36;;;;;;;4.95;1.25;;;20.20;99.90;;;;;;4147870;28;20224;-76
2022/09/17 08:59:41;;;;;;;2.55;0.98;;;20.20;99.90;;;;;;4142790;28;20777;-76
2022/09/17 09:01:53;;;;;;;3.72;1.35;;;20.20;99.90;;;;;;4147602;28;20629;-76
2022/09/17 09:04:09;;;;;;;4.18;1.27;;;20.20;99.90;;;;;;4147638;28;20712;-76
2022/09/17 09:06:14;;;;;;;2.63;1.05;;;20.30;99.90;;;;;;4147554;28;20241;-76
2022/09/17 09:08:22;;;;;;;2.80;1.20;;;20.30;99.90;;;;;;4147309;28;20275;-76
2022/09/17 09:10:29;;;;;;;3.17;1.02;;;20.20;99.90;;;;;;4147617;28;20232;-76
2022/09/17 09:12:34;;;;;;;4.22;1.27;;;20.20;99.90;;;;;;4142477;28;20225;-76
2022/09/17 09:14:41;;;;;;;3.17;1.23;;;20.20;99.90;;;;;;4147393;28;20331;-75
2022/09/17 09:16:45;;;;;;;2.22;1.05;;;20.20;99.90;;;;;;4151394;28;20216;-76
2022/09/17 09:18:51;;;;;;;3.55;1.15;;;20.30;99.90;;;;;;4147431;28;20267;-76
2022/09/17 09:20:57;;;;;;;3.65;1.20;;;20.20;99.90;;;;;;4147671;28;20213;-76
2022/09/17 09:23:09;;;;;;;3.75;1.20;;;20.20;99.90;;;;;;4147318;28;20221;-76
2022/09/17 09:25:22;;;;;;;3.00;1.05;;;20.30;99.90;;;;;;4147075;28;20221;-76
2022/09/17 09:27:28;;;;;;;4.40;1.50;;;20.30;99.90;;;;;;4147543;28;20267;-76
2022/09/17 09:29:39;;;;;;;2.90;1.15;;;20.30;99.90;;;;;;4147398;28;20224;-76
2022/09/17 09:31:58;;;;;;;2.85;1.17;;;20.30;99.90;;;;;;4144315;28;20232;-76
2022/09/17 09:34:02;;;;;;;3.50;1.40;;;20.20;99.90;;;;;;4147509;28;20209;-76
2022/09/17 09:36:07;;;;;;;2.40;1.15;;;20.20;99.90;;;;;;4144760;28;20267;-76
2022/09/17 09:38:18;;;;;;;2.75;0.95;;;20.30;99.90;;;;;;4144970;28;20225;-76
2022/09/17 09:40:31;;;;;;;2.85;1.10;;;20.30;99.90;;;;;;4140482;28;20243;-76
2022/09/17 09:42:39;;;;;;;1.95;1.08;;;20.30;99.90;;;;;;4146859;28;20224;-76
2022/09/17 09:44:41;;;;;;;2.90;0.90;;;20.30;99.90;;;;;;4147081;28;20220;-76
2022/09/17 09:47:01;;;;;;;4.38;1.30;;;20.30;99.90;;;;;;4146895;28;20885;-76
2022/09/17 09:49:15;;;;;;;2.28;1.05;;;20.30;99.90;;;;;;4137561;28;20222;-76
2022/09/17 09:51:31;;;;;;;2.05;0.90;;;20.30;99.90;;;;;;4144622;28;20283;-76
2022/09/17 09:53:43;;;;;;;2.13;1.00;;;20.30;99.90;;;;;;4137282;28;20243;-76
2022/09/17 09:56:01;;;;;;;2.17;1.02;;;20.30;99.90;;;;;;4146877;28;20661;-76
2022/09/17 09:58:17;;;;;;;3.75;1.40;;;20.30;99.90;;;;;;4140159;28;20255;-76
2022/09/17 10:00:28;;;;;;;3.13;1.08;;;20.30;99.90;;;;;;4147167;28;20217;-76
2022/09/17 10:02:32;;;;;;;2.38;1.10;;;20.30;99.90;;;;;;4146585;28;20290;-76
2022/09/17 10:04:34;;;;;;;3.03;1.30;;;20.40;99.90;;;;;;4146863;28;20225;-76
2022/09/17 10:06:36;;;;;;;2.35;1.15;;;20.30;99.90;;;;;;4146658;28;20287;-76
2022/09/17 10:08:40;;;;;;;3.65;0.98;;;20.30;99.90;;;;;;4146346;28;20275;-76
2022/09/17 10:10:58;;;;;;;3.75;1.40;;;20.30;99.90;;;;;;4146457;28;20267;-76
2022/09/17 10:13:13;;;;;;;2.50;1.10;;;20.40;99.90;;;;;;4146798;28;20217;-76
2022/09/17 10:15:26;;;;;;;3.47;1.20;;;20.40;99.90;;;;;;4151961;28;20368;-76
2022/09/17 10:17:28;;;;;;;3.45;1.20;;;20.40;99.90;;;;;;4146497;28;20279;-75
2022/09/17 10:19:31;;;;;;;2.45;0.95;;;20.40;99.90;;;;;;4147112;28;20561;-76
2022/09/17 10:21:35;;;;;;;3.70;1.38;;;20.40;99.90;;;;;;4146309;28;20225;-76
2022/09/17 10:23:43;;;;;;;3.10;1.38;;;20.40;99.90;;;;;;4146610;28;20279;-76
2022/09/17 10:25:46;;;;;;;2.45;0.93;;;20.30;99.90;;;;;;4146601;28;20217;-76
2022/09/17 10:27:49;;;;;;;2.55;1.00;;;20.40;99.90;;;;;;4146373;28;20263;-75
2022/09/17 10:30:02;;;;;;;2.80;1.00;;;20.40;99.90;;;;;;4146706;28;20229;-76
2022/09/17 10:32:07;;;;;;;2.50;1.10;;;20.40;99.90;;;;;;4138603;28;20224;-77
2022/09/17 10:34:20;;;;;;;2.15;1.13;;;20.40;99.90;;;;;;4147772;28;20267;-76
2022/09/17 10:36:40;;;;;;;2.60;0.98;;;20.40;99.90;;;;;;4147367;28;20216;-77
2022/09/17 10:38:44;;;;;;;3.03;1.20;;;20.40;99.90;;;;;;4143808;28;20267;-77
2022/09/17 10:40:47;;;;;;;4.65;1.42;;;20.40;99.90;;;;;;4147411;28;20279;-77
2022/09/17 10:42:51;;;;;;;2.75;1.10;;;20.40;99.90;;;;;;4147676;28;20251;-77
2022/09/17 10:44:56;;;;;;;2.95;1.10;;;20.40;99.90;;;;;;4147816;28;20669;-76
2022/09/17 10:47:14;;;;;;;2.22;0.98;;;20.40;99.90;;;;;;4147648;28;20213;-76
2022/09/17 10:49:33;;;;;;;2.45;1.20;;;20.40;99.90;;;;;;4147522;28;20217;-77
2022/09/17 10:51:35;;;;;;;2.53;0.82;;;20.40;99.90;;;;;;4136103;28;20241;-76
2022/09/17 10:54:09;;;;;;;3.72;0.90;;;20.40;99.90;;;;;;4147273;28;20577;-76